Time;durP1;ratioP1;P1;durP2;ratioP2;P2;SDS_P1;SDS_P2;PMS_P1;PMS_P2;Temp;Humidity;BMP_temperature;BMP_pressure;BME280_temperature;BME280_humidity;BME280_pressure;Samples;Min_cycle;Max_cycle;Signal;HPM_P1;HPM_P2
2022/10/20 00:01:40;;;;;;;0.90;0.90;;;9.50;55.40;;;8.34;57.67;102346.03;12257954;19;19955;-83
2022/10/20 00:05:42;;;;;;;1.63;1.52;;;9.70;55.50;;;8.50;57.56;102375.25;12253366;19;20037;-84
2022/10/20 00:09:43;;;;;;;1.05;1.05;;;9.50;55.40;;;8.45;57.45;102372.75;12256309;19;20337;-84
2022/10/20 00:13:48;;;;;;;7.28;1.50;;;9.50;55.40;;;8.04;57.59;102311.06;12254216;19;20526;-84
2022/10/20 00:17:49;;;;;;;1.45;1.35;;;9.40;55.30;;;7.97;57.54;102308.59;12255993;19;20467;-83
2022/10/20 00:21:51;;;;;;;1.50;1.15;;;9.40;55.50;;;8.22;57.79;102359.31;12253458;19;20043;-84
2022/10/20 00:26:24;;;;;;;1.65;1.33;;;9.60;55.80;;;8.19;57.92;102361.06;12254132;19;20022;-83
2022/10/20 00:30:26;;;;;;;1.50;1.40;;;9.40;55.80;;;8.27;57.90;102358.31;12254240;19;20021;-84
2022/10/20 00:34:27;;;;;;;1.27;1.23;;;9.40;55.80;;;8.33;58.03;102379.03;12252273;19;20014;-84
2022/10/20 00:38:29;;;;;;;1.30;1.20;;;9.40;55.80;;;8.28;57.85;102362.63;12251701;19;20326;-83
2022/10/20 00:42:31;;;;;;;1.27;1.10;;;9.40;55.80;;;8.30;57.97;102363.47;12252478;19;20095;-84
2022/10/20 00:46:40;;;;;;;2.83;1.52;;;9.40;55.80;;;8.03;57.90;102311.97;12251099;19;20022;-84
2022/10/20 00:50:48;;;;;;;1.50;1.40;;;9.40;55.70;;;8.08;57.87;102320.53;12253791;19;20015;-84
2022/10/20 00:54:50;;;;;;;1.45;1.30;;;9.40;55.50;;;8.19;57.91;102345.47;12259599;19;20033;-84
2022/10/20 00:58:52;;;;;;;5.40;1.73;;;9.40;55.40;;;8.05;57.82;102326.66;12257482;19;20014;-84
2022/10/20 01:02:58;;;;;;;0.98;0.98;;;9.30;55.30;;;7.85;57.71;102292.34;12258471;19;20015;-84
2022/10/20 01:06:59;;;;;;;1.25;1.15;;;9.30;55.30;;;8.03;57.83;102325.81;12255704;19;20014;-83
2022/10/20 01:11:18;;;;;;;1.30;1.20;;;9.20;55.20;;;7.91;57.67;102318.22;12247716;19;20003;-83
2022/10/20 01:15:33;;;;;;;1.40;1.30;;;9.10;55.20;;;7.94;57.78;102339.00;12256506;19;20354;-84
2022/10/20 01:19:53;;;;;;;2.28;1.23;;;9.10;55.20;;;7.91;57.75;102336.44;12256260;19;20014;-83
2022/10/20 01:24:16;;;;;;;1.38;1.27;;;9.00;55.30;;;7.85;57.76;102332.22;12256491;19;20018;-83
2022/10/20 01:29:04;;;;;;;1.38;1.23;;;9.00;55.40;;;7.80;57.89;102330.56;12257332;19;20476;-83
2022/10/20 01:33:24;;;;;;;2.35;1.58;;;8.90;55.20;;;7.66;57.52;102315.22;12261120;19;20487;-82
2022/10/20 01:37:51;;;;;;;1.20;1.10;;;8.90;55.10;;;7.62;57.67;102310.97;12251382;19;20022;-83
2022/10/20 01:42:04;;;;;;;1.02;1.00;;;8.80;55.00;;;7.16;57.65;102251.97;12254923;19;20036;-84
2022/10/20 01:46:09;;;;;;;1.40;1.30;;;8.70;55.10;;;7.22;57.65;102255.31;12251700;19;20038;-83
2022/10/20 01:50:13;;;;;;;2.47;1.48;;;8.60;55.10;;;7.30;57.78;102275.97;12252376;19;20015;-83
2022/10/20 01:54:27;;;;;;;1.27;1.17;;;8.60;55.60;;;7.23;57.80;102276.94;12251431;19;20022;-83
2022/10/20 01:58:53;;;;;;;1.30;1.20;;;8.50;55.30;;;7.26;57.75;102287.28;12248221;19;20386;-83
2022/10/20 02:03:17;;;;;;;1.35;1.23;;;8.40;55.50;;;7.20;57.86;102285.66;12253391;19;20042;-83
2022/10/20 02:07:30;;;;;;;1.30;1.20;;;8.40;55.60;;;7.23;57.82;102283.00;12249884;19;20018;-83
2022/10/20 02:12:09;;;;;;;3.67;1.10;;;8.30;55.60;;;7.21;57.91;102268.31;12251553;19;20018;-84
2022/10/20 02:16:32;;;;;;;1.10;1.00;;;8.30;55.70;;;7.19;58.08;102254.53;12248909;19;20484;-84
2022/10/20 02:20:34;;;;;;;1.27;1.17;;;8.30;55.80;;;6.80;58.01;102186.75;12249216;19;20014;-83
2022/10/20 02:24:39;;;;;;;2.15;1.35;;;8.40;55.80;;;7.21;58.15;102253.63;12243855;19;20018;-84
2022/10/20 02:28:47;;;;;;;2.53;1.52;;;8.40;55.80;;;7.15;58.05;102237.25;12248532;19;20026;-83
2022/10/20 02:32:51;;;;;;;1.58;1.40;;;8.40;55.70;;;7.12;57.86;102234.72;12247525;19;20026;-84
2022/10/20 02:36:57;;;;;;;1.40;1.10;;;8.30;55.50;;;7.04;57.96;102232.22;12248009;19;20010;-83
2022/10/20 02:40:59;;;;;;;1.25;1.15;;;8.30;55.50;;;7.04;57.96;102227.88;12247810;19;20014;-83
2022/10/20 02:45:01;;;;;;;1.30;1.20;;;8.30;55.60;;;6.67;58.11;102177.44;12245971;19;20046;-83
2022/10/20 02:49:02;;;;;;;1.27;1.13;;;8.20;55.60;;;6.92;58.13;102215.13;12247865;19;20015;-84
2022/10/20 02:53:04;;;;;;;1.50;1.33;;;8.20;55.70;;;6.98;58.19;102225.41;12246110;19;20488;-84
2022/10/20 02:57:06;;;;;;;1.33;1.00;;;8.20;55.70;;;7.02;58.22;102242.66;12243859;19;20007;-83
2022/10/20 03:01:08;;;;;;;1.35;1.25;;;8.20;55.70;;;6.94;58.05;102225.47;12248059;19;20349;-84
2022/10/20 03:05:10;;;;;;;2.20;1.10;;;8.10;55.60;;;6.93;58.22;102232.41;12257676;19;20413;-84
2022/10/20 03:09:12;;;;;;;1.27;1.17;;;8.10;55.60;;;6.60;58.10;102172.34;12253257;19;20068;-84
2022/10/20 03:13:14;;;;;;;2.05;1.17;;;8.10;55.50;;;6.89;58.00;102230.75;12252486;19;20023;-83
2022/10/20 03:17:16;;;;;;;3.13;1.10;;;8.10;55.50;;;6.80;58.15;102220.50;12244759;19;20018;-84
2022/10/20 03:21:17;;;;;;;0.98;0.98;;;8.00;55.50;;;6.68;58.12;102202.53;12250807;19;20018;-85
2022/10/20 03:25:19;;;;;;;1.27;1.17;;;8.00;55.50;;;6.68;58.01;102218.94;12257100;19;20018;-84
2022/10/20 03:29:25;;;;;;;1.38;1.20;;;7.90;55.40;;;6.69;58.21;102217.19;12262540;19;20475;-84
2022/10/20 03:33:27;;;;;;;1.50;1.30;;;7.90;55.40;;;6.56;58.02;102196.63;12262054;19;20011;-84
2022/10/20 03:37:29;;;;;;;1.30;1.20;;;7.80;55.40;;;6.61;58.05;102205.19;12258033;19;20409;-84
2022/10/20 03:41:31;;;;;;;1.30;1.20;;;7.80;55.50;;;6.46;58.26;102183.81;12262000;19;20010;-84
2022/10/20 03:45:33;;;;;;;2.35;1.00;;;7.80;55.60;;;6.50;58.09;102198.44;12260219;19;20018;-84
2022/10/20 03:49:34;;;;;;;1.45;1.35;;;7.80;55.70;;;6.53;58.15;102194.06;12259345;19;20022;-84
2022/10/20 03:53:36;;;;;;;1.30;1.20;;;7.80;55.80;;;6.58;58.12;102200.03;12259411;19;20421;-84
2022/10/20 03:57:38;;;;;;;1.77;1.05;;;8.10;56.00;;;6.53;58.31;102194.06;12252615;19;20022;-84
2022/10/20 04:01:44;;;;;;;1.48;1.10;;;7.80;55.90;;;6.53;58.22;102193.22;12259234;19;20010;-84
2022/10/20 04:05:46;;;;;;;7.93;2.15;;;7.70;55.80;;;6.51;58.20;102192.38;12253516;19;20082;-84
2022/10/20 04:09:47;;;;;;;1.67;1.58;;;7.80;55.80;;;6.15;58.37;102135.78;12260347;19;20121;-84
2022/10/20 04:13:50;;;;;;;3.22;1.15;;;7.80;55.90;;;6.44;58.47;102178.63;12260252;19;20078;-84
2022/10/20 04:17:52;;;;;;;3.20;1.35;;;7.70;55.80;;;6.42;58.28;102178.66;12257435;19;20011;-84
2022/10/20 04:21:53;;;;;;;1.45;1.30;;;7.70;55.80;;;6.46;58.37;102189.00;12254073;19;20014;-84
2022/10/20 04:25:55;;;;;;;1.23;1.10;;;7.70;55.70;;;6.23;58.36;102159.03;12254687;19;20014;-84
2022/10/20 04:29:57;;;;;;;1.80;1.67;;;7.60;55.70;;;6.14;58.37;102157.44;12256652;19;20010;-84
2022/10/20 04:33:59;;;;;;;1.67;1.30;;;7.60;55.80;;;6.35;58.28;102192.59;12252001;19;20014;-84
2022/10/20 04:38:00;;;;;;;1.60;1.33;;;7.60;55.90;;;6.25;58.45;102169.41;12252556;19;20029;-84
2022/10/20 04:42:02;;;;;;;1.52;1.17;;;7.50;55.90;;;6.19;58.40;102160.81;12255366;19;20026;-84
2022/10/20 04:46:05;;;;;;;1.60;1.50;;;7.50;55.80;;;6.20;58.25;102164.28;12251153;19;20056;-84
2022/10/20 04:50:08;;;;;;;1.75;1.55;;;7.50;55.80;;;6.18;58.31;102168.63;12254864;19;20014;-84
2022/10/20 04:54:10;;;;;;;2.08;1.13;;;7.50;55.90;;;5.88;58.29;102115.41;12254102;19;20018;-82
2022/10/20 04:58:11;;;;;;;2.55;1.27;;;7.40;55.90;;;5.81;58.44;102093.06;12255076;19;20025;-84
2022/10/20 05:02:13;;;;;;;1.55;1.13;;;7.40;55.80;;;5.93;58.54;102114.50;12253339;19;20366;-84
2022/10/20 05:06:19;;;;;;;1.40;1.30;;;7.30;55.90;;;6.03;58.45;102133.38;12251170;19;20038;-84
2022/10/20 05:10:21;;;;;;;3.65;1.25;;;7.30;55.90;;;5.67;58.53;102075.94;12252619;19;20023;-84
2022/10/20 05:14:22;;;;;;;1.63;1.40;;;7.30;55.90;;;5.95;58.58;102130.03;12258839;19;20043;-83
2022/10/20 05:18:24;;;;;;;1.50;1.40;;;7.30;56.00;;;5.67;58.39;102088.91;12256717;19;20019;-84
2022/10/20 05:22:25;;;;;;;1.65;1.55;;;7.30;56.10;;;6.01;58.51;102139.47;12258901;19;20021;-85
2022/10/20 05:26:35;;;;;;;1.45;1.35;;;7.20;56.10;;;5.87;58.61;102121.47;12256092;19;20014;-84
2022/10/20 05:30:37;;;;;;;1.60;1.50;;;7.20;56.10;;;6.00;58.69;102128.25;12252783;19;20030;-84
2022/10/20 05:34:39;;;;;;;1.60;1.50;;;7.40;56.20;;;5.96;58.63;102131.75;12253250;19;20030;-84
2022/10/20 05:38:41;;;;;;;1.67;1.58;;;7.20;56.20;;;5.54;58.72;102071.78;12256384;19;20695;-84
2022/10/20 05:42:43;;;;;;;1.80;1.42;;;7.20;56.20;;;5.93;58.62;102123.97;12251820;19;20023;-84
2022/10/20 05:46:45;;;;;;;1.73;1.63;;;7.20;56.40;;;5.63;58.52;102063.91;12249713;19;20006;-84
2022/10/20 05:50:47;;;;;;;2.90;1.38;;;7.40;56.50;;;6.02;58.78;102126.47;12250970;19;20378;-85
2022/10/20 05:54:49;;;;;;;2.20;1.60;;;7.30;56.50;;;5.71;58.84;102068.97;12258018;19;20402;-85
2022/10/20 05:58:50;;;;;;;1.77;1.65;;;7.30;56.50;;;6.00;58.72;102133.44;12252376;19;20146;-84
2022/10/20 06:02:53;;;;;;;3.53;1.77;;;7.30;56.50;;;5.69;58.78;102076.75;12253560;19;20431;-83
2022/10/20 06:06:55;;;;;;;2.22;2.03;;;7.30;56.50;;;5.82;58.84;102102.53;12253488;19;20045;-83
2022/10/20 06:11:06;;;;;;;4.93;1.90;;;7.30;56.40;;;6.07;58.77;102150.59;12256770;19;20024;-84
2022/10/20 06:15:08;;;;;;;2.60;1.95;;;7.40;56.50;;;6.06;58.87;102151.50;12252564;19;20022;-83
2022/10/20 06:19:10;;;;;;;2.67;2.17;;;7.40;56.50;;;6.12;58.74;102158.34;12253629;19;20014;-84
2022/10/20 06:23:14;;;;;;;2.65;2.45;;;7.40;56.60;;;6.02;58.76;102138.59;12250579;19;20007;-85
2022/10/20 06:27:16;;;;;;;2.55;1.83;;;7.40;56.70;;;6.04;58.72;102140.28;12245034;19;20018;-86
2022/10/20 06:31:29;;;;;;;2.97;1.90;;;7.40;56.70;;;6.01;58.99;102134.28;12249849;19;20066;-84
2022/10/20 06:35:31;;;;;;;2.55;1.88;;;7.40;56.70;;;5.98;59.00;102117.88;12240056;19;20022;-83
2022/10/20 06:39:32;;;;;;;2.90;2.20;;;7.40;56.70;;;5.98;58.91;102120.47;12251640;19;20021;-85
2022/10/20 06:43:34;;;;;;;2.88;2.10;;;7.40;56.70;;;5.94;59.06;102117.94;12250614;19;20372;-85
2022/10/20 06:47:36;;;;;;;2.55;2.05;;;7.60;56.90;;;5.99;58.86;102121.34;12249078;19;20017;-85
2022/10/20 06:51:38;;;;;;;5.30;2.28;;;7.40;57.30;;;6.10;59.08;102135.03;12251372;19;20053;-85
2022/10/20 06:55:40;;;;;;;2.67;2.30;;;7.40;57.10;;;6.00;58.99;102115.28;12253881;19;20010;-85
2022/10/20 06:59:41;;;;;;;3.08;2.35;;;7.50;57.30;;;6.11;59.04;102120.31;12263533;19;20034;-83
2022/10/20 07:03:45;;;;;;;2.55;2.25;;;7.50;57.30;;;5.88;59.06;102072.19;12263774;19;20038;-84
2022/10/20 07:07:53;;;;;;;5.25;2.90;;;7.60;57.60;;;6.31;59.17;102141.63;12265956;19;20021;-83
2022/10/20 07:11:54;;;;;;;4.65;3.20;;;7.70;57.90;;;6.16;59.39;102090.00;12264351;19;20011;-84
2022/10/20 07:15:57;;;;;;;4.03;3.03;;;7.70;58.10;;;6.51;59.22;102146.53;12264380;19;20010;-83
2022/10/20 07:19:59;;;;;;;3.22;2.72;;;7.80;58.30;;;6.57;59.49;102138.66;12268602;19;20019;-85
2022/10/20 07:24:01;;;;;;;2.95;2.53;;;7.80;58.70;;;6.63;59.56;102129.91;12270774;19;20031;-84
2022/10/20 07:28:02;;;;;;;4.50;3.00;;;7.90;58.80;;;6.74;59.67;102135.78;12268337;19;20010;-84
2022/10/20 07:32:04;;;;;;;4.72;3.08;;;8.00;58.90;;;6.90;59.66;102138.13;12265935;19;20002;-84
2022/10/20 07:36:20;;;;;;;3.92;2.88;;;8.40;59.00;;;6.93;59.65;102127.69;12260709;19;20130;-85
2022/10/20 07:40:21;;;;;;;3.97;2.83;;;8.30;59.20;;;7.13;59.88;102124.72;12261886;19;20014;-83
2022/10/20 07:44:23;;;;;;;5.18;3.03;;;8.30;59.20;;;7.05;59.95;102091.13;12258646;19;20015;-83
2022/10/20 07:48:25;;;;;;;5.68;3.35;;;8.50;59.30;;;7.35;59.88;102113.06;12264804;19;20018;-83
2022/10/20 07:52:29;;;;;;;6.25;3.70;;;8.70;59.70;;;7.24;59.92;102073.44;12256743;19;20015;-81
2022/10/20 07:56:38;;;;;;;5.95;3.33;;;8.80;59.80;;;7.57;60.02;102108.28;12252994;19;20006;-82
2022/10/20 08:00:40;;;;;;;3.67;3.30;;;8.90;60.10;;;7.73;60.02;102101.03;12253903;19;20014;-81
2022/10/20 08:04:43;;;;;;;5.18;3.25;;;9.10;60.40;;;7.97;60.31;102104.84;12251457;19;20073;-81
2022/10/20 08:08:45;;;;;;;5.63;3.08;;;9.30;60.20;;;8.14;60.29;102102.69;12256669;19;20022;-82
2022/10/20 08:12:46;;;;;;;7.88;3.67;;;9.40;60.00;;;8.03;60.24;102041.41;12258499;19;20010;-81
2022/10/20 08:16:48;;;;;;;8.88;4.45;;;9.60;61.20;;;8.25;60.29;102042.59;12246444;19;20494;-81
2022/10/20 08:20:50;;;;;;;4.95;3.55;;;9.90;61.40;;;8.68;60.41;102087.59;12257823;19;20014;-81
2022/10/20 08:24:52;;;;;;;4.95;3.58;;;10.00;60.70;;;8.85;60.34;102086.25;12250541;19;20026;-80
2022/10/20 08:28:54;;;;;;;5.13;3.58;;;10.40;60.40;;;9.03;60.56;102084.91;12257466;19;20045;-79
2022/10/20 08:32:56;;;;;;;4.95;3.40;;;10.40;60.00;;;9.12;60.41;102075.13;12258025;19;20018;-82
2022/10/20 08:36:59;;;;;;;5.60;4.32;;;10.50;59.80;;;8.97;60.48;102019.94;12255232;19;20022;-81
2022/10/20 08:41:01;;;;;;;5.35;3.97;;;10.60;60.40;;;9.41;60.50;102069.09;12256751;19;20014;-83
2022/10/20 08:45:04;;;;;;;6.25;3.92;;;10.80;60.00;;;9.65;60.48;102064.94;12255939;19;20027;-82
2022/10/20 08:49:27;;;;;;;5.90;3.85;;;11.00;60.70;;;9.74;60.61;102062.03;12258045;19;20056;-81
2022/10/20 08:53:37;;;;;;;5.25;3.65;;;11.10;59.90;;;9.98;60.71;102071.72;12256032;19;20034;-81
2022/10/20 08:57:39;;;;;;;4.53;3.60;;;11.30;59.60;;;10.08;60.57;102059.25;12251867;19;20035;-82
2022/10/20 09:01:41;;;;;;;5.25;3.88;;;11.50;59.60;;;10.26;60.73;102063.03;12257843;19;20014;-82
2022/10/20 09:05:48;;;;;;;5.13;3.40;;;11.60;59.40;;;10.38;60.82;102046.13;12250565;19;20022;-81
2022/10/20 09:09:51;;;;;;;6.43;4.03;;;11.80;59.40;;;10.66;60.76;102053.88;12255434;19;20018;-81
2022/10/20 09:13:53;;;;;;;6.20;3.95;;;12.20;59.50;;;10.78;60.70;102042.19;12256678;19;20023;-82
2022/10/20 09:18:09;;;;;;;7.70;3.75;;;12.20;59.40;;;10.95;60.93;102031.97;12255240;19;20011;-81
2022/10/20 09:22:12;;;;;;;4.70;3.80;;;12.30;59.50;;;11.13;60.90;102027.84;12254719;19;20010;-81
2022/10/20 09:26:19;;;;;;;7.40;3.90;;;12.70;59.30;;;11.38;60.84;102043.47;12251647;19;20014;-81
2022/10/20 09:30:32;;;;;;;3.92;3.22;;;12.70;59.10;;;11.52;60.85;102037.72;12262209;19;20010;-82
2022/10/20 09:34:34;;;;;;;4.72;3.22;;;12.90;59.00;;;11.69;60.99;102024.00;12260498;19;20010;-82
2022/10/20 09:38:41;;;;;;;5.50;3.17;;;13.10;59.00;;;11.95;60.75;102023.84;12253664;19;20031;-83
2022/10/20 09:42:57;;;;;;;3.53;3.17;;;13.30;58.80;;;12.04;60.71;101996.44;12254099;19;20009;-81
2022/10/20 09:47:01;;;;;;;4.13;3.22;;;13.50;58.70;;;12.26;60.88;101991.19;12252268;19;20015;-82
2022/10/20 09:51:05;;;;;;;5.20;2.95;;;13.70;58.60;;;12.49;60.84;101987.56;12254790;19;20014;-82
2022/10/20 09:55:36;;;;;;;4.28;2.63;;;13.90;57.90;;;12.65;60.59;101972.03;12250718;19;20581;-82
2022/10/20 09:59:43;;;;;;;2.30;2.10;;;14.10;58.10;;;12.90;60.58;101978.81;12253859;19;20006;-81
2022/10/20 10:04:00;;;;;;;2.30;2.10;;;14.30;57.80;;;13.07;60.54;101976.31;12249376;19;20038;-82
2022/10/20 10:08:02;;;;;;;2.83;2.10;;;14.50;57.70;;;13.27;60.46;101978.88;12248672;19;20443;-81
2022/10/20 10:12:25;;;;;;;2.40;2.20;;;14.70;56.70;;;13.42;60.34;101976.44;12255107;19;20044;-81
2022/10/20 10:16:38;;;;;;;3.63;2.00;;;14.80;56.70;;;13.48;60.09;101944.69;12243351;19;20017;-81
2022/10/20 10:20:40;;;;;;;3.70;3.00;;;15.00;56.20;;;13.69;60.31;101950.66;12254140;19;20022;-83
2022/10/20 10:24:46;;;;;;;3.78;2.88;;;15.10;56.50;;;13.81;60.21;101952.69;12248598;19;20090;-82
2022/10/20 10:28:57;;;;;;;3.97;2.63;;;15.20;55.70;;;13.93;59.94;101940.72;12251134;19;20057;-83
2022/10/20 10:32:58;;;;;;;4.75;3.10;;;15.60;55.80;;;14.05;59.87;101932.25;12251524;19;20018;-82
2022/10/20 10:37:00;;;;;;;4.20;2.85;;;15.40;55.30;;;14.16;59.67;101919.41;12248505;19;20090;-80
2022/10/20 10:41:21;;;;;;;3.53;2.75;;;15.60;55.20;;;14.30;59.58;101909.97;12249772;19;20477;-83
2022/10/20 10:45:58;;;;;;;3.83;3.17;;;15.60;54.90;;;14.42;59.39;101911.09;12251779;19;20011;-82
2022/10/20 10:50:33;;;;;;;3.15;2.85;;;15.80;55.20;;;14.51;59.47;101908.84;12255591;19;20138;-82
2022/10/20 10:55:00;;;;;;;2.40;2.20;;;15.80;55.30;;;14.63;59.11;101901.28;12248180;19;20015;-82
2022/10/20 10:59:23;;;;;;;2.13;1.95;;;15.90;54.40;;;14.69;59.25;101896.56;12251146;19;20017;-83
2022/10/20 11:03:55;;;;;;;4.25;1.65;;;16.00;54.70;;;14.81;58.99;101887.97;12251024;19;20018;-83
2022/10/20 11:08:33;;;;;;;3.17;1.95;;;16.10;54.60;;;14.92;58.84;101866.34;12254653;19;20011;-82
2022/10/20 11:13:15;;;;;;;2.85;1.50;;;16.20;54.10;;;15.02;58.78;101864.09;12262545;19;20053;-82
2022/10/20 11:17:32;;;;;;;4.32;1.73;;;16.30;54.00;;;15.14;58.66;101855.47;12252490;19;20022;-82
2022/10/20 11:22:11;;;;;;;3.63;1.63;;;16.40;54.00;;;15.21;58.58;101840.22;12254337;19;20025;-82
2022/10/20 11:26:43;;;;;;;2.00;1.73;;;16.50;53.50;;;15.03;58.55;101789.47;12249988;19;20047;-83
2022/10/20 11:30:46;;;;;;;1.60;1.50;;;16.60;53.40;;;15.27;58.25;101808.28;12254551;19;20103;-84
2022/10/20 11:35:34;;;;;;;2.85;1.83;;;16.60;53.00;;;15.42;57.93;101817.94;12250560;19;20014;-82
2022/10/20 11:39:40;;;;;;;2.33;1.60;;;16.70;52.60;;;15.54;58.07;101808.47;12255029;19;20061;-83
2022/10/20 11:44:17;;;;;;;3.42;1.73;;;16.80;53.40;;;15.47;57.77;101775.53;12250816;19;20029;-82
2022/10/20 11:48:32;;;;;;;1.95;1.80;;;16.90;52.50;;;15.63;57.57;101775.47;12266344;19;20065;-82
2022/10/20 11:52:59;;;;;;;2.22;2.03;;;16.90;52.40;;;15.75;57.52;101792.38;12257964;19;20011;-81
2022/10/20 11:57:48;;;;;;;4.28;2.95;;;17.00;52.60;;;15.81;57.50;101794.63;12259731;19;20010;-82
2022/10/20 12:02:11;;;;;;;3.38;2.90;;;17.10;52.30;;;15.82;57.27;101776.06;12259236;19;20010;-81
2022/10/20 12:07:02;;;;;;;4.07;2.55;;;17.20;51.80;;;15.91;57.16;101788.72;12260476;19;20019;-83
2022/10/20 12:11:29;;;;;;;3.45;2.40;;;17.20;51.90;;;16.00;57.03;101789.09;12264322;19;20040;-82
2022/10/20 12:15:30;;;;;;;2.13;1.88;;;17.20;52.40;;;16.03;57.04;101775.72;12252408;19;20361;-81
2022/10/20 12:19:35;;;;;;;1.95;1.55;;;17.50;52.00;;;16.07;56.78;101782.50;12256548;19;20368;-82
2022/10/20 12:23:44;;;;;;;1.77;1.67;;;17.50;51.80;;;16.17;56.68;101780.13;12244453;19;20418;-82
2022/10/20 12:27:45;;;;;;;4.85;2.80;;;17.30;51.40;;;16.16;56.79;101755.59;12255838;19;20077;-82
2022/10/20 12:32:23;;;;;;;5.25;2.47;;;17.40;51.60;;;16.23;56.51;101771.84;12255270;19;20039;-82
2022/10/20 12:36:34;;;;;;;3.15;1.70;;;17.40;50.80;;;16.21;56.54;101766.69;12258324;19;20013;-82
2022/10/20 12:40:59;;;;;;;2.05;1.88;;;17.40;51.50;;;16.25;56.25;101754.16;12259168;19;20026;-84
2022/10/20 12:45:23;;;;;;;5.32;1.92;;;17.50;51.70;;;16.26;56.03;101751.44;12252201;19;20015;-83
2022/10/20 12:49:51;;;;;;;2.83;2.40;;;17.40;50.30;;;16.05;55.88;101711.44;12257458;19;20324;-83
2022/10/20 12:54:02;;;;;;;1.98;1.67;;;17.40;51.40;;;16.27;56.17;101744.38;12257235;19;20547;-81
2022/10/20 12:58:16;;;;;;;1.45;1.27;;;17.60;51.60;;;16.36;55.88;101735.88;12256518;19;20006;-81
2022/10/20 13:02:21;;;;;;;5.30;1.58;;;17.50;51.60;;;16.42;55.80;101732.00;12254665;19;20042;-82
2022/10/20 13:06:23;;;;;;;1.80;1.67;;;17.50;51.20;;;16.47;55.78;101724.63;12253212;19;20022;-82
2022/10/20 13:10:36;;;;;;;2.40;1.80;;;17.60;51.40;;;15.88;55.40;101630.00;12253344;19;20417;-82
2022/10/20 13:14:47;;;;;;;3.03;1.95;;;17.80;50.60;;;16.45;55.46;101703.66;12253379;19;20026;-82
2022/10/20 13:18:52;;;;;;;2.80;1.98;;;17.60;50.90;;;16.48;55.59;101686.81;12254247;19;20018;-83
2022/10/20 13:22:55;;;;;;;2.63;2.00;;;17.60;50.60;;;16.48;55.42;101689.44;12254129;19;20031;-81
2022/10/20 13:27:03;;;;;;;2.40;1.70;;;17.60;50.50;;;16.29;55.25;101637.06;12249896;19;20010;-82
2022/10/20 13:31:15;;;;;;;2.15;1.95;;;17.60;50.80;;;16.54;55.25;101681.13;12257202;19;20018;-83
2022/10/20 13:35:28;;;;;;;3.80;2.65;;;17.70;50.60;;;16.50;55.19;101687.53;12254953;19;20014;-81
2022/10/20 13:39:52;;;;;;;2.15;1.95;;;17.60;50.70;;;16.46;55.27;101667.59;12253523;19;20025;-81
2022/10/20 13:44:25;;;;;;;4.95;2.50;;;17.60;51.00;;;16.47;55.04;101670.13;12251231;19;20023;-82
2022/10/20 13:49:13;;;;;;;3.00;1.90;;;17.60;51.00;;;16.35;55.05;101652.47;12253655;19;20025;-83
2022/10/20 13:53:40;;;;;;;1.92;1.73;;;17.50;49.70;;;16.37;54.97;101654.06;12248667;19;20018;-80
2022/10/20 13:57:55;;;;;;;1.77;1.67;;;17.50;50.80;;;16.40;54.79;101653.03;12246262;19;20010;-83
2022/10/20 14:02:19;;;;;;;1.98;1.50;;;17.50;50.70;;;16.18;54.87;101608.75;12249669;19;20021;-83
2022/10/20 14:06:35;;;;;;;5.18;3.30;;;17.50;51.00;;;16.45;54.67;101645.66;12247119;19;20019;-83
2022/10/20 14:10:58;;;;;;;2.55;2.28;;;17.50;50.70;;;16.35;54.61;101642.75;12256442;19;20092;-83
2022/10/20 14:15:05;;;;;;;3.28;1.80;;;17.50;49.90;;;16.42;54.55;101645.88;12245719;19;20432;-83
2022/10/20 14:19:11;;;;;;;3.30;2.33;;;17.40;49.00;;;16.35;54.41;101648.03;12251621;19;20010;-84
2022/10/20 14:23:13;;;;;;;2.13;1.33;;;17.50;49.40;;;16.23;54.25;101634.78;12255734;19;20029;-84
2022/10/20 14:27:20;;;;;;;1.73;1.63;;;17.30;49.40;;;16.29;54.16;101655.50;12254351;19;20026;-82
2022/10/20 14:31:24;;;;;;;3.60;2.78;;;17.30;49.60;;;16.29;54.13;101645.81;12255205;19;20038;-81
2022/10/20 14:35:52;;;;;;;3.92;2.03;;;17.30;49.50;;;16.15;54.23;101636.16;12249766;19;20438;-83
2022/10/20 14:39:53;;;;;;;2.10;1.48;;;17.30;49.50;;;16.17;54.23;101645.75;12251144;19;20015;-82
2022/10/20 14:44:00;;;;;;;1.50;1.40;;;17.20;49.70;;;16.18;54.36;101652.72;12249813;19;20033;-82
2022/10/20 14:48:01;;;;;;;1.77;1.50;;;17.20;49.90;;;16.07;53.99;101630.53;12254299;19;20018;-83
2022/10/20 14:52:21;;;;;;;2.25;1.60;;;17.20;50.20;;;16.06;53.81;101630.59;12249530;19;20022;-83
2022/10/20 14:56:24;;;;;;;1.92;1.77;;;17.10;50.20;;;16.14;53.83;101641.50;12247111;19;20477;-82
2022/10/20 15:00:34;;;;;;;1.90;1.42;;;17.10;49.80;;;15.96;53.90;101616.31;12251558;19;20691;-84
2022/10/20 15:04:40;;;;;;;3.03;2.38;;;17.10;50.60;;;16.02;53.75;101627.34;12242058;19;20019;-82
2022/10/20 15:08:53;;;;;;;2.10;1.90;;;17.10;50.80;;;16.01;53.98;101609.81;12246170;19;20038;-81
2022/10/20 15:12:55;;;;;;;2.53;2.05;;;17.00;50.60;;;15.86;53.91;101574.78;12252699;19;20028;-82
2022/10/20 15:16:57;;;;;;;2.75;1.67;;;17.00;50.80;;;15.90;53.88;101578.06;12248371;19;20022;-82
2022/10/20 15:20:58;;;;;;;4.07;2.05;;;17.20;51.00;;;15.84;53.88;101579.28;12260244;19;20022;-83
2022/10/20 15:25:00;;;;;;;1.92;1.83;;;16.90;51.10;;;15.92;53.74;101595.44;12255472;19;20026;-83
2022/10/20 15:29:03;;;;;;;4.45;1.58;;;16.90;51.20;;;15.83;53.83;101588.16;12260523;19;20015;-83
2022/10/20 15:33:04;;;;;;;4.63;1.85;;;16.80;51.30;;;15.82;53.87;101593.50;12260716;19;20381;-82
2022/10/20 15:37:06;;;;;;;2.45;2.25;;;16.80;51.30;;;15.76;53.65;101589.47;12254255;19;20455;-82
2022/10/20 15:41:13;;;;;;;2.92;2.25;;;16.70;51.10;;;15.67;53.92;101582.97;12255499;19;20010;-83
2022/10/20 15:45:22;;;;;;;4.30;1.92;;;16.60;51.50;;;15.58;53.90;101573.03;12255489;19;20018;-82
2022/10/20 15:49:23;;;;;;;2.33;2.10;;;16.50;51.60;;;15.32;53.98;101537.78;12256878;19;20010;-83
2022/10/20 15:53:25;;;;;;;2.30;2.08;;;16.50;51.70;;;15.49;54.00;101577.06;12261654;19;20078;-83
2022/10/20 15:57:27;;;;;;;2.03;1.83;;;16.40;51.70;;;15.40;53.70;101553.94;12254235;19;20014;-83
2022/10/20 16:01:29;;;;;;;2.17;1.80;;;16.50;52.00;;;15.33;53.89;101557.88;12264046;19;20114;-83
2022/10/20 16:05:30;;;;;;;3.55;2.08;;;16.30;52.00;;;15.27;54.03;101555.66;12260174;19;20074;-83
2022/10/20 16:09:32;;;;;;;3.22;1.75;;;16.20;52.00;;;15.13;53.86;101553.03;12262040;19;20014;-82
2022/10/20 16:13:34;;;;;;;2.13;1.92;;;16.10;52.10;;;15.07;53.81;101546.34;12264217;19;20002;-83
2022/10/20 16:17:36;;;;;;;2.00;1.80;;;16.00;52.10;;;14.63;53.86;101499.06;12258538;19;20022;-82
2022/10/20 16:21:38;;;;;;;4.38;2.08;;;15.80;52.20;;;14.86;54.02;101545.03;12256818;19;20014;-82
2022/10/20 16:25:39;;;;;;;1.75;1.65;;;15.70;52.30;;;14.67;53.94;101518.97;12249577;19;20022;-83
2022/10/20 16:29:41;;;;;;;2.47;1.88;;;15.60;52.40;;;14.62;53.91;101532.38;12251009;19;20496;-82
2022/10/20 16:33:43;;;;;;;3.15;1.92;;;15.50;52.60;;;14.48;54.00;101529.72;12255145;19;20022;-82
2022/10/20 16:37:45;;;;;;;2.40;1.75;;;15.70;52.80;;;14.44;54.15;101533.44;12252373;19;20739;-81
2022/10/20 16:41:46;;;;;;;4.70;2.08;;;15.30;52.80;;;14.11;54.23;101495.91;12253786;19;20026;-83
2022/10/20 16:45:48;;;;;;;5.65;2.25;;;15.40;53.00;;;14.24;54.18;101538.06;12250394;19;20015;-81
2022/10/20 16:49:49;;;;;;;5.57;2.63;;;15.10;53.10;;;14.27;54.27;101543.16;12246530;19;20018;-82
2022/10/20 16:53:53;;;;;;;7.38;2.20;;;15.10;53.20;;;13.99;54.24;101520.25;12252619;19;20357;-82
2022/10/20 16:57:55;;;;;;;4.35;2.00;;;15.20;53.30;;;14.13;54.18;101545.72;12253754;19;20021;-80
2022/10/20 17:01:56;;;;;;;3.28;2.38;;;15.00;53.30;;;14.09;54.30;101547.66;12253538;19;20003;-81
2022/10/20 17:06:06;;;;;;;2.30;1.73;;;15.00;53.40;;;14.07;54.29;101536.41;12255444;19;20018;-82
2022/10/20 17:10:08;;;;;;;3.83;2.05;;;14.90;53.40;;;13.99;54.39;101532.50;12260389;19;20014;-82
2022/10/20 17:14:10;;;;;;;2.42;1.85;;;14.80;53.40;;;13.86;54.38;101529.75;12256703;19;20018;-83